Terminal Aerodrome Forecast
Issued by NWS Austin/San Antonio, TX

Home | Current Version | Previous Version | Text Only | Print | Product List | Glossary On
Versions: 1 2 3 4 5 6 7 8 9 10 11 12 13 14 15 16 17 18 19 20 21 22 23
680
FTUS44 KEWX 242325
TAFAUS
TAF
KAUS 242325Z 2500/2606 05008KT P6SM FEW035 BKN150
     FM250800 06005KT P6SM BKN016
     FM251600 07008KT P6SM VCSH BKN035
     FM260200 07005KT P6SM SCT080 BKN200=

USA.gov is the U.S. government's official web portal to all federal, state and local government web resources and services.